sensor_id;sensor_type;location;lat;lon;timestamp;pressure;altitude;pressure_sealevel;temperature;humidity
78773;BME280;68111;44.728;11.290;2023-11-19T00:01:34;102108.28;;;15.31;34.38
78773;BME280;68111;44.728;11.290;2023-11-19T00:04:01;102094.06;;;15.29;34.40
78773;BME280;68111;44.728;11.290;2023-11-19T00:06:28;102086.94;;;15.27;34.47
78773;BME280;68111;44.728;11.290;2023-11-19T00:08:54;102086.94;;;15.25;34.53
78773;BME280;68111;44.728;11.290;2023-11-19T00:11:21;102084.28;;;15.24;34.30
78773;BME280;68111;44.728;11.290;2023-11-19T00:13:48;102096.69;;;15.22;34.51
78773;BME280;68111;44.728;11.290;2023-11-19T00:16:15;102109.13;;;15.21;34.55
78773;BME280;68111;44.728;11.290;2023-11-19T00:18:43;102113.56;;;15.19;34.42
78773;BME280;68111;44.728;11.290;2023-11-19T00:21:10;102110.00;;;15.17;34.41
78773;BME280;68111;44.728;11.290;2023-11-19T00:23:37;102112.63;;;15.13;34.79
78773;BME280;68111;44.728;11.290;2023-11-19T00:26:04;102107.31;;;15.11;34.72
78773;BME280;68111;44.728;11.290;2023-11-19T00:28:33;102114.38;;;15.08;34.53
78773;BME280;68111;44.728;11.290;2023-11-19T00:31:00;102109.03;;;15.04;34.67
78773;BME280;68111;44.728;11.290;2023-11-19T00:33:27;102114.34;;;15.03;34.59
78773;BME280;68111;44.728;11.290;2023-11-19T00:35:54;102122.34;;;15.03;34.77
78773;BME280;68111;44.728;11.290;2023-11-19T00:38:22;102108.13;;;15.01;34.61
78773;BME280;68111;44.728;11.290;2023-11-19T00:40:49;102093.03;;;15.00;34.69
78773;BME280;68111;44.728;11.290;2023-11-19T00:43:16;102078.81;;;14.98;34.74
78773;BME280;68111;44.728;11.290;2023-11-19T00:45:42;102085.91;;;14.93;34.90
78773;BME280;68111;44.728;11.290;2023-11-19T00:48:09;102095.63;;;14.88;34.90
78773;BME280;68111;44.728;11.290;2023-11-19T00:50:37;102112.47;;;14.85;35.11
78773;BME280;68111;44.728;11.290;2023-11-19T00:53:06;102112.47;;;14.85;35.27
78773;BME280;68111;44.728;11.290;2023-11-19T00:55:32;102116.03;;;14.86;35.26
78773;BME280;68111;44.728;11.290;2023-11-19T00:57:59;102126.69;;;14.86;35.26
78773;BME280;68111;44.728;11.290;2023-11-19T01:00:26;102130.25;;;14.88;35.05
78773;BME280;68111;44.728;11.290;2023-11-19T01:02:54;102142.69;;;14.89;35.14
78773;BME280;68111;44.728;11.290;2023-11-19T01:05:21;102134.69;;;14.89;35.09
78773;BME280;68111;44.728;11.290;2023-11-19T01:07:50;102132.91;;;14.88;35.17
78773;BME280;68111;44.728;11.290;2023-11-19T01:10:18;102119.59;;;14.88;35.09
78773;BME280;68111;44.728;11.290;2023-11-19T01:12:46;102119.59;;;14.88;35.04
78773;BME280;68111;44.728;11.290;2023-11-19T01:15:12;102114.25;;;14.88;35.39
78773;BME280;68111;44.728;11.290;2023-11-19T01:17:39;102106.28;;;14.88;35.25
78773;BME280;68111;44.728;11.290;2023-11-19T01:20:19;102102.72;;;14.87;35.24
78773;BME280;68111;44.728;11.290;2023-11-19T01:22:47;102090.28;;;14.85;35.37
78773;BME280;68111;44.728;11.290;2023-11-19T01:25:16;102095.63;;;14.85;35.63
78773;BME280;68111;44.728;11.290;2023-11-19T01:27:44;102095.63;;;14.85;35.30
78773;BME280;68111;44.728;11.290;2023-11-19T01:30:11;102104.50;;;14.85;35.54
78773;BME280;68111;44.728;11.290;2023-11-19T01:32:41;102100.06;;;14.86;35.41
78773;BME280;68111;44.728;11.290;2023-11-19T01:35:08;102102.72;;;14.86;35.76
78773;BME280;68111;44.728;11.290;2023-11-19T01:37:35;102093.84;;;14.85;35.48
78773;BME280;68111;44.728;11.290;2023-11-19T01:40:03;102085.84;;;14.84;35.49
78773;BME280;68111;44.728;11.290;2023-11-19T01:42:38;102073.41;;;14.81;35.55
78773;BME280;68111;44.728;11.290;2023-11-19T01:45:05;102082.28;;;14.80;35.51
78773;BME280;68111;44.728;11.290;2023-11-19T01:47:37;102072.50;;;14.79;35.82
78773;BME280;68111;44.728;11.290;2023-11-19T01:50:06;102078.72;;;14.80;35.64
78773;BME280;68111;44.728;11.290;2023-11-19T01:52:34;102069.84;;;14.81;35.74
78773;BME280;68111;44.728;11.290;2023-11-19T01:55:07;102075.19;;;14.81;35.51
78773;BME280;68111;44.728;11.290;2023-11-19T01:57:35;102062.75;;;14.81;35.64
78773;BME280;68111;44.728;11.290;2023-11-19T02:00:07;102063.66;;;14.82;35.67
78773;BME280;68111;44.728;11.290;2023-11-19T02:02:43;102060.97;;;14.82;35.80
78773;BME280;68111;44.728;11.290;2023-11-19T02:05:11;102048.56;;;14.81;35.47
78773;BME280;68111;44.728;11.290;2023-11-19T02:07:40;102048.56;;;14.81;35.55
78773;BME280;68111;44.728;11.290;2023-11-19T02:10:07;102060.09;;;14.80;35.76
78773;BME280;68111;44.728;11.290;2023-11-19T02:12:34;102063.63;;;14.79;35.60
78773;BME280;68111;44.728;11.290;2023-11-19T02:15:02;102057.41;;;14.77;35.57
78773;BME280;68111;44.728;11.290;2023-11-19T02:17:30;102064.50;;;14.75;35.93
78773;BME280;68111;44.728;11.290;2023-11-19T02:20:01;102058.28;;;14.72;35.95
78773;BME280;68111;44.728;11.290;2023-11-19T02:22:28;102051.16;;;14.68;35.82
78773;BME280;68111;44.728;11.290;2023-11-19T02:24:59;102047.59;;;14.66;35.79
78773;BME280;68111;44.728;11.290;2023-11-19T02:27:52;102040.47;;;14.65;36.09
78773;BME280;68111;44.728;11.290;2023-11-19T02:30:23;102024.50;;;14.64;35.85
78773;BME280;68111;44.728;11.290;2023-11-19T02:32:59;102036.03;;;14.61;35.84
78773;BME280;68111;44.728;11.290;2023-11-19T02:35:29;102033.38;;;14.64;35.69
78773;BME280;68111;44.728;11.290;2023-11-19T02:37:59;102028.03;;;14.63;35.86
78773;BME280;68111;44.728;11.290;2023-11-19T02:40:27;102029.81;;;14.59;35.91
78773;BME280;68111;44.728;11.290;2023-11-19T02:42:54;102019.13;;;14.56;35.71
78773;BME280;68111;44.728;11.290;2023-11-19T02:45:23;102015.56;;;14.54;35.74
78773;BME280;68111;44.728;11.290;2023-11-19T02:47:52;102012.03;;;14.52;36.06
78773;BME280;68111;44.728;11.290;2023-11-19T02:50:20;102016.44;;;14.52;36.24
78773;BME280;68111;44.728;11.290;2023-11-19T02:52:53;102004.03;;;14.51;35.81
78773;BME280;68111;44.728;11.290;2023-11-19T02:55:20;102011.09;;;14.49;36.17
78773;BME280;68111;44.728;11.290;2023-11-19T02:57:47;102010.22;;;14.48;36.13
78773;BME280;68111;44.728;11.290;2023-11-19T03:00:21;101999.56;;;14.47;36.10
78773;BME280;68111;44.728;11.290;2023-11-19T03:02:51;101989.81;;;14.46;36.16
78773;BME280;68111;44.728;11.290;2023-11-19T03:05:37;101987.13;;;14.44;35.93
78773;BME280;68111;44.728;11.290;2023-11-19T03:08:04;101983.56;;;14.42;36.05
78773;BME280;68111;44.728;11.290;2023-11-19T03:10:30;101980.88;;;14.40;36.08
78773;BME280;68111;44.728;11.290;2023-11-19T03:12:57;101978.19;;;14.39;35.94
78773;BME280;68111;44.728;11.290;2023-11-19T03:15:26;101979.09;;;14.38;36.05
78773;BME280;68111;44.728;11.290;2023-11-19T03:17:52;101979.97;;;14.37;36.16
78773;BME280;68111;44.728;11.290;2023-11-19T03:20:19;101971.09;;;14.35;36.00
78773;BME280;68111;44.728;11.290;2023-11-19T03:22:47;101963.97;;;14.34;36.32
78773;BME280;68111;44.728;11.290;2023-11-19T03:25:14;101963.09;;;14.33;35.97
78773;BME280;68111;44.728;11.290;2023-11-19T03:27:41;101966.66;;;14.34;36.10
78773;BME280;68111;44.728;11.290;2023-11-19T03:30:10;101960.44;;;14.32;36.19
78773;BME280;68111;44.728;11.290;2023-11-19T03:32:38;101957.75;;;14.30;35.99
78773;BME280;68111;44.728;11.290;2023-11-19T03:35:05;101961.25;;;14.29;36.11
78773;BME280;68111;44.728;11.290;2023-11-19T03:37:36;101964.81;;;14.28;36.03
78773;BME280;68111;44.728;11.290;2023-11-19T03:40:03;101962.13;;;14.27;36.25
78773;BME280;68111;44.728;11.290;2023-11-19T03:42:31;101962.13;;;14.24;35.87
78773;BME280;68111;44.728;11.290;2023-11-19T03:44:58;101960.31;;;14.20;36.22
78773;BME280;68111;44.728;11.290;2023-11-19T03:47:44;101962.06;;;14.18;36.30
78773;BME280;68111;44.728;11.290;2023-11-19T03:50:10;101962.97;;;14.17;36.03
78773;BME280;68111;44.728;11.290;2023-11-19T03:52:37;101952.31;;;14.15;36.23
78773;BME280;68111;44.728;11.290;2023-11-19T03:55:26;101960.28;;;14.14;36.21
78773;BME280;68111;44.728;11.290;2023-11-19T03:57:52;101962.91;;;14.12;36.04
78773;BME280;68111;44.728;11.290;2023-11-19T04:00:19;101961.13;;;14.09;36.28
78773;BME280;68111;44.728;11.290;2023-11-19T04:02:47;101969.09;;;14.09;36.37
78773;BME280;68111;44.728;11.290;2023-11-19T04:05:14;101982.41;;;14.08;36.45
78773;BME280;68111;44.728;11.290;2023-11-19T04:07:41;101988.59;;;14.08;36.34
78773;BME280;68111;44.728;11.290;2023-11-19T04:10:08;101979.75;;;14.09;36.37
78773;BME280;68111;44.728;11.290;2023-11-19T04:12:35;101979.75;;;14.09;36.47
78773;BME280;68111;44.728;11.290;2023-11-19T04:15:02;101990.41;;;14.11;36.39
78773;BME280;68111;44.728;11.290;2023-11-19T04:17:29;101983.31;;;14.12;36.28
78773;BME280;68111;44.728;11.290;2023-11-19T04:19:56;101985.09;;;14.13;36.09
78773;BME280;68111;44.728;11.290;2023-11-19T04:22:22;101971.78;;;14.09;36.15
78773;BME280;68111;44.728;11.290;2023-11-19T04:24:50;101964.66;;;14.07;36.09
78773;BME280;68111;44.728;11.290;2023-11-19T04:27:17;101961.09;;;14.05;36.15
78773;BME280;68111;44.728;11.290;2023-11-19T04:29:44;101953.09;;;14.00;36.24
78773;BME280;68111;44.728;11.290;2023-11-19T04:32:14;101962.81;;;13.98;36.15
78773;BME280;68111;44.728;11.290;2023-11-19T04:34:40;101954.84;;;13.97;36.23
78773;BME280;68111;44.728;11.290;2023-11-19T04:37:08;101963.69;;;13.94;36.05
78773;BME280;68111;44.728;11.290;2023-11-19T04:39:39;101961.91;;;13.93;36.32
78773;BME280;68111;44.728;11.290;2023-11-19T04:42:06;101958.34;;;13.91;36.42
78773;BME280;68111;44.728;11.290;2023-11-19T04:44:33;101949.47;;;13.91;36.35
78773;BME280;68111;44.728;11.290;2023-11-19T04:47:00;101949.47;;;13.92;36.31
78773;BME280;68111;44.728;11.290;2023-11-19T04:49:27;101939.75;;;13.93;36.36
78773;BME280;68111;44.728;11.290;2023-11-19T04:51:54;101937.09;;;13.94;36.36
78773;BME280;68111;44.728;11.290;2023-11-19T04:54:21;101937.09;;;13.94;36.37
78773;BME280;68111;44.728;11.290;2023-11-19T04:56:48;101934.44;;;13.93;36.45
78773;BME280;68111;44.728;11.290;2023-11-19T04:59:15;101937.97;;;13.92;36.32
78773;BME280;68111;44.728;11.290;2023-11-19T05:01:46;101933.50;;;13.89;36.52
78773;BME280;68111;44.728;11.290;2023-11-19T05:04:14;101936.16;;;13.86;36.63
78773;BME280;68111;44.728;11.290;2023-11-19T05:06:41;101933.47;;;13.83;36.27
78773;BME280;68111;44.728;11.290;2023-11-19T05:09:08;101934.34;;;13.82;36.43
78773;BME280;68111;44.728;11.290;2023-11-19T05:11:35;101923.69;;;13.81;36.53
78773;BME280;68111;44.728;11.290;2023-11-19T05:14:17;101917.50;;;13.80;36.45
78773;BME280;68111;44.728;11.290;2023-11-19T05:16:45;101925.47;;;13.80;36.64
78773;BME280;68111;44.728;11.290;2023-11-19T05:19:12;101916.59;;;13.80;36.78
78773;BME280;68111;44.728;11.290;2023-11-19T05:21:41;101912.16;;;13.78;36.51
78773;BME280;68111;44.728;11.290;2023-11-19T05:24:09;101913.06;;;13.79;36.72
78773;BME280;68111;44.728;11.290;2023-11-19T05:26:36;101915.72;;;13.79;36.62
78773;BME280;68111;44.728;11.290;2023-11-19T05:29:02;101910.38;;;13.76;36.38
78773;BME280;68111;44.728;11.290;2023-11-19T05:31:29;101912.16;;;13.77;36.70
78773;BME280;68111;44.728;11.290;2023-11-19T05:34:00;101911.28;;;13.78;36.75
78773;BME280;68111;44.728;11.290;2023-11-19T05:36:26;101906.84;;;13.77;36.85
78773;BME280;68111;44.728;11.290;2023-11-19T05:38:55;101897.09;;;13.76;36.67
78773;BME280;68111;44.728;11.290;2023-11-19T05:41:22;101897.09;;;13.76;36.88
78773;BME280;68111;44.728;11.290;2023-11-19T05:43:49;101890.91;;;13.77;36.76
78773;BME280;68111;44.728;11.290;2023-11-19T05:46:15;101897.09;;;13.77;36.52
78773;BME280;68111;44.728;11.290;2023-11-19T05:48:46;101901.56;;;13.83;36.48
78773;BME280;68111;44.728;11.290;2023-11-19T05:51:14;101896.25;;;13.82;36.57
78773;BME280;68111;44.728;11.290;2023-11-19T05:53:44;101894.44;;;13.77;36.47
78773;BME280;68111;44.728;11.290;2023-11-19T05:56:12;101892.66;;;13.75;36.55
78773;BME280;68111;44.728;11.290;2023-11-19T05:58:41;101891.75;;;13.74;36.58
78773;BME280;68111;44.728;11.290;2023-11-19T06:01:07;101891.75;;;13.71;36.56
78773;BME280;68111;44.728;11.290;2023-11-19T06:03:35;101889.06;;;13.70;36.50
78773;BME280;68111;44.728;11.290;2023-11-19T06:06:03;101892.59;;;13.67;36.47
78773;BME280;68111;44.728;11.290;2023-11-19T06:08:31;101886.41;;;13.67;36.68
78773;BME280;68111;44.728;11.290;2023-11-19T06:10:58;101892.59;;;13.66;36.70
78773;BME280;68111;44.728;11.290;2023-11-19T06:13:27;101897.00;;;13.65;36.63
78773;BME280;68111;44.728;11.290;2023-11-19T06:15:54;101890.78;;;13.63;36.73
78773;BME280;68111;44.728;11.290;2023-11-19T06:18:21;101887.25;;;13.63;36.63
78773;BME280;68111;44.728;11.290;2023-11-19T06:20:47;101889.91;;;13.61;36.75
78773;BME280;68111;44.728;11.290;2023-11-19T06:23:16;101889.91;;;13.61;36.71
78773;BME280;68111;44.728;11.290;2023-11-19T06:25:42;101893.44;;;13.60;36.69
78773;BME280;68111;44.728;11.290;2023-11-19T06:28:09;101888.97;;;13.58;36.75
78773;BME280;68111;44.728;11.290;2023-11-19T06:30:36;101896.06;;;13.56;36.56
78773;BME280;68111;44.728;11.290;2023-11-19T06:33:03;101904.00;;;13.54;36.67
78773;BME280;68111;44.728;11.290;2023-11-19T06:35:30;101904.91;;;13.55;36.71
78773;BME280;68111;44.728;11.290;2023-11-19T06:38:03;101904.91;;;13.56;36.71
78773;BME280;68111;44.728;11.290;2023-11-19T06:40:32;101888.97;;;13.58;37.03
78773;BME280;68111;44.728;11.290;2023-11-19T06:42:59;101895.16;;;13.57;36.53
78773;BME280;68111;44.728;11.290;2023-11-19T06:45:26;101906.69;;;13.56;36.74
78773;BME280;68111;44.728;11.290;2023-11-19T06:47:53;101891.63;;;13.56;36.55
78773;BME280;68111;44.728;11.290;2023-11-19T06:50:20;101889.84;;;13.54;36.69
78773;BME280;68111;44.728;11.290;2023-11-19T06:52:47;101883.66;;;13.55;36.85
78773;BME280;68111;44.728;11.290;2023-11-19T06:55:13;101894.28;;;13.55;36.65
78773;BME280;68111;44.728;11.290;2023-11-19T06:57:40;101896.06;;;13.56;36.81
78773;BME280;68111;44.728;11.290;2023-11-19T07:00:07;101894.28;;;13.55;36.55
78773;BME280;68111;44.728;11.290;2023-11-19T07:02:35;101898.72;;;13.57;36.47
78773;BME280;68111;44.728;11.290;2023-11-19T07:05:02;101898.72;;;13.59;36.57
78773;BME280;68111;44.728;11.290;2023-11-19T07:07:32;101903.16;;;13.60;36.65
78773;BME280;68111;44.728;11.290;2023-11-19T07:09:59;101894.31;;;13.61;36.14
78773;BME280;68111;44.728;11.290;2023-11-19T07:12:26;101903.19;;;13.61;36.44
78773;BME280;68111;44.728;11.290;2023-11-19T07:14:53;101891.66;;;13.61;36.59
78773;BME280;68111;44.728;11.290;2023-11-19T07:17:21;101895.19;;;13.60;36.53
78773;BME280;68111;44.728;11.290;2023-11-19T07:19:49;101895.19;;;13.60;36.56
78773;BME280;68111;44.728;11.290;2023-11-19T07:22:35;101910.25;;;13.59;36.63
78773;BME280;68111;44.728;11.290;2023-11-19T07:25:01;101919.09;;;13.57;36.66
78773;BME280;68111;44.728;11.290;2023-11-19T07:27:28;101911.09;;;13.55;36.59
78773;BME280;68111;44.728;11.290;2023-11-19T07:29:55;101917.28;;;13.53;36.65
78773;BME280;68111;44.728;11.290;2023-11-19T07:32:22;101922.59;;;13.53;36.71
78773;BME280;68111;44.728;11.290;2023-11-19T07:34:49;101925.22;;;13.51;36.63
78773;BME280;68111;44.728;11.290;2023-11-19T07:37:16;101928.78;;;13.52;36.49
78773;BME280;68111;44.728;11.290;2023-11-19T07:39:43;101940.28;;;13.51;36.57
78773;BME280;68111;44.728;11.290;2023-11-19T07:42:10;101944.72;;;13.52;36.78
78773;BME280;68111;44.728;11.290;2023-11-19T07:44:37;101942.94;;;13.51;36.64
78773;BME280;68111;44.728;11.290;2023-11-19T07:47:04;101945.59;;;13.51;36.74
78773;BME280;68111;44.728;11.290;2023-11-19T07:49:31;101952.69;;;13.52;36.58
78773;BME280;68111;44.728;11.290;2023-11-19T07:51:58;101955.34;;;13.53;36.71
78773;BME280;68111;44.728;11.290;2023-11-19T07:54:25;101959.78;;;13.54;36.74
78773;BME280;68111;44.728;11.290;2023-11-19T07:56:52;101958.03;;;13.55;37.12
78773;BME280;68111;44.728;11.290;2023-11-19T07:59:19;101967.78;;;13.57;36.79
78773;BME280;68111;44.728;11.290;2023-11-19T08:01:45;101964.25;;;13.57;36.93
78773;BME280;68111;44.728;11.290;2023-11-19T08:04:12;101975.78;;;13.59;36.79
78773;BME280;68111;44.728;11.290;2023-11-19T08:06:39;101974.00;;;13.58;36.96
78773;BME280;68111;44.728;11.290;2023-11-19T08:09:06;101973.13;;;13.60;36.78
78773;BME280;68111;44.728;11.290;2023-11-19T08:11:33;101975.81;;;13.62;36.74
78773;BME280;68111;44.728;11.290;2023-11-19T08:14:00;101981.16;;;13.65;36.86
78773;BME280;68111;44.728;11.290;2023-11-19T08:16:27;101977.63;;;13.67;36.88
78773;BME280;68111;44.728;11.290;2023-11-19T08:18:53;101974.09;;;13.70;36.59
78773;BME280;68111;44.728;11.290;2023-11-19T08:21:20;101975.91;;;13.72;37.01
78773;BME280;68111;44.728;11.290;2023-11-19T08:23:49;101968.81;;;13.73;36.85
78773;BME280;68111;44.728;11.290;2023-11-19T08:26:16;101976.81;;;13.74;36.90
78773;BME280;68111;44.728;11.290;2023-11-19T08:28:47;101973.25;;;13.74;37.06
78773;BME280;68111;44.728;11.290;2023-11-19T08:31:14;101973.28;;;13.75;37.12
78773;BME280;68111;44.728;11.290;2023-11-19T08:33:41;101978.59;;;13.77;37.47
78773;BME280;68111;44.728;11.290;2023-11-19T08:36:08;101967.09;;;13.78;37.31
78773;BME280;68111;44.728;11.290;2023-11-19T08:38:34;101981.28;;;13.80;37.31
78773;BME280;68111;44.728;11.290;2023-11-19T08:41:01;101983.06;;;13.81;37.32
78773;BME280;68111;44.728;11.290;2023-11-19T08:43:28;101981.31;;;13.83;37.42
78773;BME280;68111;44.728;11.290;2023-11-19T08:45:55;101974.25;;;13.85;37.30
78773;BME280;68111;44.728;11.290;2023-11-19T08:48:22;101976.03;;;13.86;37.10
78773;BME280;68111;44.728;11.290;2023-11-19T08:50:49;101961.84;;;13.87;37.46
78773;BME280;68111;44.728;11.290;2023-11-19T08:53:16;101957.44;;;13.89;37.42
78773;BME280;68111;44.728;11.290;2023-11-19T08:55:43;101953.91;;;13.90;37.49
78773;BME280;68111;44.728;11.290;2023-11-19T08:58:09;101954.78;;;13.91;37.38
78773;BME280;68111;44.728;11.290;2023-11-19T09:00:36;101950.38;;;13.93;37.08
78773;BME280;68111;44.728;11.290;2023-11-19T09:03:03;101956.59;;;13.96;37.59
78773;BME280;68111;44.728;11.290;2023-11-19T09:05:30;101953.06;;;13.97;37.22
78773;BME280;68111;44.728;11.290;2023-11-19T09:07:58;101946.00;;;13.99;37.54
78773;BME280;68111;44.728;11.290;2023-11-19T09:10:25;101959.31;;;14.02;37.27
78773;BME280;68111;44.728;11.290;2023-11-19T09:12:51;101961.09;;;14.05;37.39
78773;BME280;68111;44.728;11.290;2023-11-19T09:15:21;101955.78;;;14.06;37.49
78773;BME280;68111;44.728;11.290;2023-11-19T09:17:48;101961.13;;;14.08;37.28
78773;BME280;68111;44.728;11.290;2023-11-19T09:20:15;101964.69;;;14.10;37.32
78773;BME280;68111;44.728;11.290;2023-11-19T09:22:42;101969.13;;;14.13;37.88
78773;BME280;68111;44.728;11.290;2023-11-19T09:25:09;101970.03;;;14.16;37.97
78773;BME280;68111;44.728;11.290;2023-11-19T09:27:36;101972.72;;;14.18;37.70
78773;BME280;68111;44.728;11.290;2023-11-19T09:30:04;101981.63;;;14.23;37.67
78773;BME280;68111;44.728;11.290;2023-11-19T09:32:31;101971.00;;;14.26;37.98
78773;BME280;68111;44.728;11.290;2023-11-19T09:34:58;101981.66;;;14.29;37.95
78773;BME280;68111;44.728;11.290;2023-11-19T09:37:24;101977.25;;;14.31;38.08
78773;BME280;68111;44.728;11.290;2023-11-19T09:39:51;101969.31;;;14.34;38.16
78773;BME280;68111;44.728;11.290;2023-11-19T09:42:19;101966.66;;;14.37;37.93
78773;BME280;68111;44.728;11.290;2023-11-19T09:44:47;101961.34;;;14.38;38.17
78773;BME280;68111;44.728;11.290;2023-11-19T09:47:16;101957.81;;;14.41;38.16
78773;BME280;68111;44.728;11.290;2023-11-19T09:49:43;101957.88;;;14.46;38.24
78773;BME280;68111;44.728;11.290;2023-11-19T09:52:10;101957.00;;;14.50;38.24
78773;BME280;68111;44.728;11.290;2023-11-19T09:54:37;101964.13;;;14.52;38.46
78773;BME280;68111;44.728;11.290;2023-11-19T09:57:05;101948.16;;;14.54;38.40
78773;BME280;68111;44.728;11.290;2023-11-19T09:59:35;101947.28;;;14.58;38.20
78773;BME280;68111;44.728;11.290;2023-11-19T10:02:03;101943.75;;;14.62;38.58
78773;BME280;68111;44.728;11.290;2023-11-19T10:04:34;101946.44;;;14.66;38.38
78773;BME280;68111;44.728;11.290;2023-11-19T10:07:03;101942.03;;;14.71;38.41
78773;BME280;68111;44.728;11.290;2023-11-19T10:09:29;101942.94;;;14.77;38.29
78773;BME280;68111;44.728;11.290;2023-11-19T10:11:56;101930.53;;;14.80;38.89
78773;BME280;68111;44.728;11.290;2023-11-19T10:14:23;101928.78;;;14.84;38.76
78773;BME280;68111;44.728;11.290;2023-11-19T10:16:54;101913.69;;;14.89;38.76
78773;BME280;68111;44.728;11.290;2023-11-19T10:19:22;101910.16;;;14.96;38.73
78773;BME280;68111;44.728;11.290;2023-11-19T10:21:48;101918.19;;;15.03;38.89
78773;BME280;68111;44.728;11.290;2023-11-19T10:24:15;101911.97;;;15.12;38.38
78773;BME280;68111;44.728;11.290;2023-11-19T10:26:45;101908.44;;;15.21;38.57
78773;BME280;68111;44.728;11.290;2023-11-19T10:29:13;101918.22;;;15.29;38.47
78773;BME280;68111;44.728;11.290;2023-11-19T10:31:43;101917.34;;;15.38;38.72
78773;BME280;68111;44.728;11.290;2023-11-19T10:34:25;101917.34;;;15.47;38.32
78773;BME280;68111;44.728;11.290;2023-11-19T10:36:53;101916.47;;;15.56;38.34
78773;BME280;68111;44.728;11.290;2023-11-19T10:39:20;101905.88;;;15.63;38.07
78773;BME280;68111;44.728;11.290;2023-11-19T10:41:48;101901.44;;;15.73;37.77
78773;BME280;68111;44.728;11.290;2023-11-19T10:44:32;101884.53;;;15.83;37.76
78773;BME280;68111;44.728;11.290;2023-11-19T10:47:05;101883.63;;;15.90;37.58
78773;BME280;68111;44.728;11.290;2023-11-19T10:49:32;101888.06;;;15.99;37.46
78773;BME280;68111;44.728;11.290;2023-11-19T10:52:20;101884.47;;;16.11;37.46
78773;BME280;68111;44.728;11.290;2023-11-19T10:54:50;101893.34;;;16.19;37.42
78773;BME280;68111;44.728;11.290;2023-11-19T10:57:20;101893.31;;;16.28;37.19
78773;BME280;68111;44.728;11.290;2023-11-19T10:59:49;101895.94;;;16.40;37.27
78773;BME280;68111;44.728;11.290;2023-11-19T11:02:19;101888.78;;;16.48;37.37
78773;BME280;68111;44.728;11.290;2023-11-19T11:04:49;101870.97;;;16.55;37.17
78773;BME280;68111;44.728;11.290;2023-11-19T17:39:44;101714.75;;;17.21;42.83
78773;BME280;68111;44.728;11.290;2023-11-19T17:42:11;101717.44;;;17.20;43.09
78773;BME280;68111;44.728;11.290;2023-11-19T17:44:38;101722.81;;;17.18;43.08
78773;BME280;68111;44.728;11.290;2023-11-19T17:47:05;101723.69;;;17.17;43.24
78773;BME280;68111;44.728;11.290;2023-11-19T17:49:32;101729.03;;;17.17;43.08
78773;BME280;68111;44.728;11.290;2023-11-19T17:51:58;101727.28;;;17.16;43.17
78773;BME280;68111;44.728;11.290;2023-11-19T17:54:25;101725.50;;;17.15;43.34
78773;BME280;68111;44.728;11.290;2023-11-19T17:56:52;101728.19;;;17.14;43.14
78773;BME280;68111;44.728;11.290;2023-11-19T17:59:19;101736.22;;;17.12;43.17
78773;BME280;68111;44.728;11.290;2023-11-19T18:01:51;101737.13;;;17.10;43.40
78773;BME280;68111;44.728;11.290;2023-11-19T18:04:24;101728.22;;;17.09;43.48
78773;BME280;68111;44.728;11.290;2023-11-19T18:06:52;101716.69;;;17.07;43.29
78773;BME280;68111;44.728;11.290;2023-11-19T18:09:19;101718.44;;;17.08;43.36
78773;BME280;68111;44.728;11.290;2023-11-19T18:11:46;101719.34;;;17.07;43.32
78773;BME280;68111;44.728;11.290;2023-11-19T18:14:14;101730.94;;;17.06;43.12
78773;BME280;68111;44.728;11.290;2023-11-19T18:16:41;101727.38;;;17.04;43.23
78773;BME280;68111;44.728;11.290;2023-11-19T18:19:10;101713.16;;;17.02;42.99
78773;BME280;68111;44.728;11.290;2023-11-19T18:21:37;101702.50;;;16.99;43.22
78773;BME280;68111;44.728;11.290;2023-11-19T18:24:06;101714.97;;;16.99;43.23
78773;BME280;68111;44.728;11.290;2023-11-19T18:26:33;101714.97;;;16.97;43.62
78773;BME280;68111;44.728;11.290;2023-11-19T18:29:03;101711.44;;;16.95;43.36
78773;BME280;68111;44.728;11.290;2023-11-19T18:31:30;101701.66;;;16.94;43.38
78773;BME280;68111;44.728;11.290;2023-11-19T18:33:59;101700.78;;;16.93;43.49
78773;BME280;68111;44.728;11.290;2023-11-19T18:36:26;101711.44;;;16.95;43.45
78773;BME280;68111;44.728;11.290;2023-11-19T18:38:54;101700.75;;;16.95;43.36
78773;BME280;68111;44.728;11.290;2023-11-19T18:41:21;101700.75;;;16.95;43.49
78773;BME280;68111;44.728;11.290;2023-11-19T18:43:48;101696.31;;;16.92;43.38
78773;BME280;68111;44.728;11.290;2023-11-19T18:46:14;101707.00;;;16.92;43.45
78773;BME280;68111;44.728;11.290;2023-11-19T18:48:41;101703.47;;;16.92;43.53
78773;BME280;68111;44.728;11.290;2023-11-19T18:51:08;101698.13;;;16.92;43.61
78773;BME280;68111;44.728;11.290;2023-11-19T18:53:40;101699.00;;;16.92;43.40
78773;BME280;68111;44.728;11.290;2023-11-19T18:56:10;101691.88;;;16.91;43.01
78773;BME280;68111;44.728;11.290;2023-11-19T18:58:37;101700.81;;;16.90;43.40
78773;BME280;68111;44.728;11.290;2023-11-19T19:01:04;101704.34;;;16.91;43.35
78773;BME280;68111;44.728;11.290;2023-11-19T19:03:31;101705.25;;;16.91;43.30
78773;BME280;68111;44.728;11.290;2023-11-19T19:05:58;101703.47;;;16.92;43.15
78773;BME280;68111;44.728;11.290;2023-11-19T19:08:25;101704.34;;;16.91;43.23
78773;BME280;68111;44.728;11.290;2023-11-19T19:10:52;101712.38;;;16.91;43.07
78773;BME280;68111;44.728;11.290;2023-11-19T19:13:19;101717.72;;;16.91;43.02
78773;BME280;68111;44.728;11.290;2023-11-19T19:15:46;101723.91;;;16.90;42.95
78773;BME280;68111;44.728;11.290;2023-11-19T19:18:13;101731.94;;;16.88;43.07